WEATHER/FLIGHT PLANNING

Hattiesburg Radar

 

 

 

 

Weather Links

Flight Planning Links

 

METAR

2019/09/22 14:53 KHBG 221453Z AUTO 11007KT 10SM CLR 26/19 A3017 RMK AO2 SLP213 T02610194 50007

TAF

2019/09/22 12:22 TAF KHBG 221120Z 2212/2312 00000KT P6SM SKC FM221500 14008KT P6SM SCT080